Time;durP1;ratioP1;P1;durP2;ratioP2;P2;SDS_P1;SDS_P2;PMS_P1;PMS_P2;Temp;Humidity;BMP_temperature;BMP_pressure;BME280_temperature;BME280_humidity;BME280_pressure;Samples;Min_cycle;Max_cycle;Signal;HPM_P1;HPM_P2
2023/06/16 00:01:53;;;;;;;7.97;5.20;;;16.60;99.90;;;;;;4973790;28;20489;-72
2023/06/16 00:04:21;;;;;;;6.93;5.17;;;16.60;99.90;;;;;;4974319;28;20460;-72
2023/06/16 00:06:48;;;;;;;8.03;5.20;;;16.50;99.90;;;;;;4973551;28;20547;-73
2023/06/16 00:09:14;;;;;;;5.83;5.20;;;16.60;99.90;;;;;;4974219;28;20431;-73
2023/06/16 00:11:42;;;;;;;8.97;5.43;;;16.60;99.90;;;;;;4973756;28;20487;-72
2023/06/16 00:14:09;;;;;;;6.97;5.50;;;16.50;99.90;;;;;;4973310;28;21058;-73
2023/06/16 00:16:36;;;;;;;7.63;6.20;;;16.50;99.90;;;;;;4973723;28;20531;-72
2023/06/16 00:19:03;;;;;;;7.60;5.73;;;16.50;99.90;;;;;;4973630;28;20900;-72
2023/06/16 00:21:37;;;;;;;8.60;5.87;;;16.50;99.90;;;;;;4974063;28;20464;-72
2023/06/16 00:24:05;;;;;;;9.57;5.23;;;16.50;99.90;;;;;;4973560;28;20575;-72
2023/06/16 00:26:31;;;;;;;7.93;5.40;;;16.40;99.90;;;;;;4973878;28;20806;-72
2023/06/16 00:28:59;;;;;;;9.47;5.80;;;16.40;99.90;;;;;;4973399;28;20516;-72
2023/06/16 00:31:26;;;;;;;10.23;5.60;;;16.30;99.90;;;;;;4973503;28;20464;-72
2023/06/16 00:33:53;;;;;;;8.40;5.07;;;16.20;99.90;;;;;;4973300;28;20491;-73
2023/06/16 00:36:20;;;;;;;7.20;5.23;;;16.20;99.90;;;;;;4973164;28;20468;-72
2023/06/16 00:38:46;;;;;;;7.63;5.90;;;16.10;99.90;;;;;;4973442;28;20464;-72
2023/06/16 00:41:13;;;;;;;8.87;5.40;;;16.00;99.90;;;;;;4973410;28;20460;-72
2023/06/16 00:43:40;;;;;;;7.03;4.90;;;16.00;99.90;;;;;;4973143;28;20514;-73
2023/06/16 00:46:10;;;;;;;7.20;5.60;;;16.00;99.90;;;;;;4973394;28;20452;-73
2023/06/16 00:48:37;;;;;;;9.23;5.87;;;16.00;99.90;;;;;;4972738;28;20452;-72
2023/06/16 00:51:03;;;;;;;6.53;5.37;;;15.90;99.90;;;;;;4972459;28;20523;-72
2023/06/16 00:53:31;;;;;;;10.50;5.30;;;15.90;99.90;;;;;;4973112;28;20504;-72
2023/06/16 00:55:58;;;;;;;9.33;5.70;;;15.90;99.90;;;;;;4972867;28;20551;-72
2023/06/16 00:58:26;;;;;;;8.30;5.83;;;15.90;99.90;;;;;;4972835;28;20514;-73
2023/06/16 01:00:52;;;;;;;9.17;5.70;;;15.90;99.90;;;;;;4973248;28;20464;-73
2023/06/16 01:03:21;;;;;;;8.10;5.50;;;15.90;99.90;;;;;;4972963;28;20472;-72
2023/06/16 01:05:48;;;;;;;8.53;5.70;;;15.90;99.90;;;;;;4972434;28;20889;-72
2023/06/16 01:08:22;;;;;;;6.87;5.50;;;15.90;99.90;;;;;;4972836;28;20456;-72
2023/06/16 01:10:55;;;;;;;9.33;5.40;;;16.00;99.90;;;;;;4972695;28;20506;-72
2023/06/16 01:13:27;;;;;;;10.53;5.70;;;15.90;99.90;;;;;;4972492;28;20547;-72
2023/06/16 01:15:56;;;;;;;7.30;5.77;;;15.90;99.90;;;;;;4972577;28;20514;-72
2023/06/16 01:18:27;;;;;;;11.60;5.43;;;15.90;99.90;;;;;;4972140;28;20456;-73
2023/06/16 01:21:00;;;;;;;9.20;6.17;;;15.90;99.90;;;;;;4972542;28;20452;-73
2023/06/16 01:23:34;;;;;;;14.53;5.83;;;15.80;99.90;;;;;;4972057;28;20480;-72
2023/06/16 01:26:03;;;;;;;6.63;5.60;;;15.80;99.90;;;;;;4972530;28;20456;-72
2023/06/16 01:28:32;;;;;;;12.90;6.27;;;15.70;99.90;;;;;;4972407;28;20448;-72
2023/06/16 01:31:00;;;;;;;8.10;5.50;;;15.70;99.90;;;;;;4972381;28;20452;-72
2023/06/16 01:33:30;;;;;;;11.07;5.50;;;15.70;99.90;;;;;;4972372;28;20496;-72
2023/06/16 01:35:58;;;;;;;7.50;6.10;;;15.70;99.90;;;;;;4972600;28;20878;-72
2023/06/16 01:38:26;;;;;;;8.67;5.50;;;15.60;99.90;;;;;;4972001;28;20507;-73
2023/06/16 01:40:54;;;;;;;11.83;5.53;;;15.60;99.90;;;;;;4971879;28;20460;-73
2023/06/16 01:43:23;;;;;;;7.17;5.23;;;15.60;99.90;;;;;;4970850;28;20983;-72
2023/06/16 01:45:51;;;;;;;10.33;6.30;;;15.70;99.90;;;;;;4972134;28;20456;-72
2023/06/16 01:48:19;;;;;;;11.30;6.40;;;15.70;99.90;;;;;;4971762;28;20535;-72
2023/06/16 01:50:46;;;;;;;8.43;5.33;;;15.70;99.90;;;;;;4971839;28;20457;-72
2023/06/16 01:53:13;;;;;;;9.53;5.87;;;15.70;99.90;;;;;;4971779;28;20492;-72
2023/06/16 01:55:39;;;;;;;9.63;5.57;;;15.60;99.90;;;;;;4971949;28;20946;-72
2023/06/16 01:58:07;;;;;;;13.97;6.07;;;15.60;99.90;;;;;;4971957;28;20448;-72
2023/06/16 02:00:38;;;;;;;6.10;5.40;;;15.60;99.90;;;;;;4971877;28;20872;-72
2023/06/16 02:03:08;;;;;;;7.03;5.77;;;15.70;99.90;;;;;;4971369;28;20534;-72
2023/06/16 02:05:36;;;;;;;9.90;6.10;;;15.70;99.90;;;;;;4972027;28;20452;-72
2023/06/16 02:08:05;;;;;;;10.00;5.97;;;15.60;99.90;;;;;;4971697;28;20952;-72
2023/06/16 02:10:32;;;;;;;8.10;5.63;;;15.60;99.90;;;;;;4972124;28;20856;-72
2023/06/16 02:12:59;;;;;;;7.60;5.23;;;15.70;99.90;;;;;;4971183;28;20915;-72
2023/06/16 02:15:27;;;;;;;7.40;5.67;;;15.70;99.90;;;;;;4971212;28;20468;-72
2023/06/16 02:17:57;;;;;;;7.10;5.70;;;15.70;99.90;;;;;;4971972;28;20464;-72
2023/06/16 02:20:24;;;;;;;6.63;5.40;;;15.70;99.90;;;;;;4971639;28;20467;-72
2023/06/16 02:22:51;;;;;;;11.27;6.10;;;15.80;99.90;;;;;;4971269;28;20976;-72
2023/06/16 02:25:18;;;;;;;8.20;6.40;;;15.80;99.90;;;;;;4971681;28;21157;-72
2023/06/16 02:27:44;;;;;;;10.30;5.63;;;15.80;99.90;;;;;;4971820;28;20813;-72
2023/06/16 02:30:12;;;;;;;12.60;6.00;;;15.90;99.90;;;;;;4971208;28;20462;-72
2023/06/16 02:32:39;;;;;;;8.63;5.67;;;15.90;99.90;;;;;;4971168;28;21039;-72
2023/06/16 02:35:08;;;;;;;8.20;5.57;;;16.00;99.90;;;;;;4971481;28;20475;-72
2023/06/16 02:37:35;;;;;;;6.20;5.50;;;16.00;99.90;;;;;;4971590;28;20508;-72
2023/06/16 02:40:03;;;;;;;7.93;6.03;;;16.00;99.90;;;;;;4971224;28;20465;-72
2023/06/16 02:42:30;;;;;;;7.50;6.10;;;16.00;99.90;;;;;;4971382;28;20926;-72
2023/06/16 02:44:57;;;;;;;9.27;6.20;;;16.00;99.90;;;;;;4971270;28;20445;-72
2023/06/16 02:47:23;;;;;;;6.93;5.60;;;16.00;99.90;;;;;;4971034;28;20456;-72
2023/06/16 02:49:51;;;;;;;6.63;5.80;;;15.90;99.90;;;;;;4971089;28;20456;-72
2023/06/16 02:52:19;;;;;;;6.87;6.17;;;16.00;99.90;;;;;;4971417;28;20472;-73
2023/06/16 02:54:46;;;;;;;11.47;6.10;;;15.90;99.90;;;;;;4971154;28;21066;-72
2023/06/16 02:57:12;;;;;;;7.70;5.83;;;15.90;99.90;;;;;;4963623;28;20881;-72
2023/06/16 02:59:39;;;;;;;10.63;6.23;;;15.80;99.90;;;;;;4971184;28;20511;-72
2023/06/16 03:02:06;;;;;;;9.33;6.87;;;15.80;99.90;;;;;;4970950;28;20866;-72
2023/06/16 03:04:34;;;;;;;9.27;6.30;;;15.80;99.90;;;;;;4971346;28;20506;-72
2023/06/16 03:07:02;;;;;;;8.73;6.20;;;15.80;99.90;;;;;;4971352;28;20463;-72
2023/06/16 03:09:30;;;;;;;6.43;5.60;;;15.80;99.90;;;;;;4971309;28;20480;-72
2023/06/16 03:11:57;;;;;;;7.13;5.53;;;15.80;99.90;;;;;;4970805;28;20447;-72
2023/06/16 03:14:25;;;;;;;9.27;6.30;;;15.80;99.90;;;;;;4971319;28;20488;-72
2023/06/16 03:16:51;;;;;;;9.73;5.60;;;15.80;99.90;;;;;;4971048;28;20467;-72
2023/06/16 03:19:19;;;;;;;6.80;5.13;;;15.80;99.90;;;;;;4971362;28;20460;-72
2023/06/16 03:21:48;;;;;;;7.13;5.30;;;15.80;99.90;;;;;;4971190;28;20455;-72
2023/06/16 03:24:16;;;;;;;11.30;6.00;;;15.80;99.90;;;;;;4963561;28;20449;-72
2023/06/16 03:26:45;;;;;;;7.23;5.37;;;15.80;99.90;;;;;;4971029;28;20526;-72
2023/06/16 03:29:12;;;;;;;7.07;5.87;;;15.70;99.90;;;;;;4974062;28;20447;-72
2023/06/16 03:31:39;;;;;;;11.13;5.30;;;15.70;99.90;;;;;;4974521;28;20462;-72
2023/06/16 03:34:06;;;;;;;8.47;5.57;;;15.70;99.90;;;;;;4974026;28;20539;-72
2023/06/16 03:36:36;;;;;;;7.90;5.63;;;15.70;99.90;;;;;;4974626;28;20452;-73
2023/06/16 03:39:03;;;;;;;8.87;4.80;;;15.70;99.90;;;;;;4973971;28;20459;-73
2023/06/16 03:41:30;;;;;;;15.83;6.17;;;15.70;99.90;;;;;;4974356;28;20464;-73
2023/06/16 03:43:58;;;;;;;13.03;6.00;;;15.70;99.90;;;;;;4973998;28;20477;-70
2023/06/16 03:46:24;;;;;;;5.83;5.33;;;15.70;99.90;;;;;;4974428;28;20514;-70
2023/06/16 03:48:51;;;;;;;7.10;5.90;;;15.60;99.90;;;;;;4973470;28;20438;-72
2023/06/16 03:51:18;;;;;;;10.90;6.03;;;15.70;99.90;;;;;;4973995;28;20461;-72
2023/06/16 03:53:44;;;;;;;17.70;6.00;;;15.60;99.90;;;;;;4974067;28;20523;-72
2023/06/16 03:56:11;;;;;;;11.30;5.67;;;15.70;99.90;;;;;;4973928;28;20460;-72
2023/06/16 03:58:38;;;;;;;10.87;5.73;;;15.60;99.90;;;;;;4974047;28;20487;-72
2023/06/16 04:01:06;;;;;;;6.53;5.03;;;15.60;99.90;;;;;;4973893;28;20461;-72
2023/06/16 04:03:33;;;;;;;7.47;5.43;;;15.60;99.90;;;;;;4974163;28;20497;-72
2023/06/16 04:06:00;;;;;;;7.70;5.70;;;15.60;99.90;;;;;;4974259;28;20515;-72
2023/06/16 04:08:26;;;;;;;14.37;6.10;;;15.60;99.90;;;;;;4974263;28;20526;-72
2023/06/16 04:10:57;;;;;;;9.43;6.10;;;15.60;99.90;;;;;;4973785;28;20447;-72
2023/06/16 04:13:24;;;;;;;8.00;5.80;;;15.60;99.90;;;;;;4973343;28;20476;-72
2023/06/16 04:15:50;;;;;;;11.03;5.73;;;15.60;99.90;;;;;;4973916;28;20453;-72
2023/06/16 04:18:18;;;;;;;10.13;5.87;;;15.60;99.90;;;;;;4965744;28;20456;-72
2023/06/16 04:20:45;;;;;;;9.73;6.60;;;15.60;99.90;;;;;;4973601;28;20456;-73
2023/06/16 04:23:11;;;;;;;10.00;5.63;;;15.70;99.90;;;;;;4973744;28;20555;-73
2023/06/16 04:25:38;;;;;;;16.97;6.03;;;15.70;99.90;;;;;;4973598;28;20459;-73
2023/06/16 04:28:07;;;;;;;10.10;5.70;;;15.70;99.90;;;;;;4973285;28;20518;-73
2023/06/16 04:30:34;;;;;;;21.00;6.57;;;15.70;99.90;;;;;;4973131;28;20467;-73
2023/06/16 04:33:02;;;;;;;7.43;5.83;;;15.70;99.90;;;;;;4972842;28;20480;-73
2023/06/16 04:35:31;;;;;;;9.27;5.90;;;15.70;99.90;;;;;;4973585;28;20575;-73
2023/06/16 04:37:58;;;;;;;8.30;5.20;;;15.80;99.90;;;;;;4973134;28;20460;-73
2023/06/16 04:40:25;;;;;;;10.33;5.90;;;15.90;99.90;;;;;;4972856;28;20464;-73
2023/06/16 04:42:52;;;;;;;6.40;5.60;;;16.00;99.90;;;;;;4973003;28;20503;-73
2023/06/16 04:45:19;;;;;;;10.73;6.60;;;16.10;99.90;;;;;;4965155;28;20468;-73
2023/06/16 04:47:47;;;;;;;14.87;5.70;;;16.10;99.90;;;;;;4973004;28;20507;-73
2023/06/16 04:50:15;;;;;;;7.80;6.17;;;16.20;99.90;;;;;;4972375;28;20890;-73
2023/06/16 04:52:44;;;;;;;7.47;6.10;;;16.30;99.90;;;;;;4973019;28;20473;-73
2023/06/16 04:55:11;;;;;;;12.97;5.17;;;16.40;99.90;;;;;;4972113;28;20492;-73
2023/06/16 04:57:37;;;;;;;13.17;5.27;;;16.40;99.90;;;;;;4972564;28;20465;-73
2023/06/16 05:00:07;;;;;;;8.97;5.70;;;16.60;99.90;;;;;;4972676;28;20527;-73
2023/06/16 05:02:34;;;;;;;13.63;5.90;;;16.60;99.90;;;;;;4972397;28;20527;-73
2023/06/16 05:05:01;;;;;;;7.50;5.80;;;16.70;99.90;;;;;;4972394;28;21003;-73
2023/06/16 05:07:28;;;;;;;9.57;5.80;;;16.80;99.90;;;;;;4972849;28;20552;-73
2023/06/16 05:09:56;;;;;;;13.43;5.70;;;16.90;99.90;;;;;;4972123;28;20447;-73
2023/06/16 05:12:24;;;;;;;8.77;6.23;;;17.00;99.90;;;;;;4965010;28;21006;-73
2023/06/16 05:14:51;;;;;;;7.40;5.30;;;17.10;99.90;;;;;;4972664;28;20528;-73
2023/06/16 05:17:17;;;;;;;6.73;6.00;;;17.20;99.90;;;;;;4972640;28;20460;-73
2023/06/16 05:19:44;;;;;;;6.00;5.30;;;17.30;99.90;;;;;;4972332;28;20452;-73
2023/06/16 05:22:11;;;;;;;9.13;5.93;;;17.40;99.90;;;;;;4972055;28;20479;-73
2023/06/16 05:24:37;;;;;;;9.10;5.97;;;17.50;99.90;;;;;;4972082;28;20936;-72
2023/06/16 05:27:06;;;;;;;11.52;5.43;;;17.60;99.90;;;;;;4971197;28;20450;-71
2023/06/16 05:29:32;;;;;;;11.47;6.03;;;17.70;99.90;;;;;;4972371;28;20212;-71
2023/06/16 05:31:59;;;;;;;8.53;5.77;;;17.80;99.90;;;;;;4971719;28;20460;-72
2023/06/16 05:34:26;;;;;;;8.20;5.80;;;17.90;99.90;;;;;;4972129;28;20491;-71
2023/06/16 05:36:52;;;;;;;8.30;5.73;;;18.00;99.90;;;;;;4971950;28;20944;-68
2023/06/16 05:39:19;;;;;;;7.90;5.07;;;18.10;99.90;;;;;;4971831;28;20487;-72
2023/06/16 05:41:46;;;;;;;10.30;5.47;;;18.30;99.90;;;;;;4971595;28;20511;-72
2023/06/16 05:44:14;;;;;;;6.70;5.03;;;18.60;99.90;;;;;;4968294;28;20878;-70
2023/06/16 05:46:40;;;;;;;7.47;5.40;;;19.00;99.90;;;;;;4969252;28;20455;-70
2023/06/16 05:49:07;;;;;;;8.10;4.87;;;19.20;99.90;;;;;;4966161;28;20514;-70
2023/06/16 05:51:34;;;;;;;13.10;5.63;;;19.50;99.90;;;;;;4966255;28;20439;-70
2023/06/16 05:54:00;;;;;;;6.27;4.50;;;19.70;99.90;;;;;;4966961;28;20793;-72
2023/06/16 05:56:27;;;;;;;7.30;5.50;;;19.90;99.90;;;;;;4967109;28;20472;-72
2023/06/16 05:58:54;;;;;;;8.67;5.23;;;20.10;99.90;;;;;;4966782;28;20952;-72
2023/06/16 06:01:22;;;;;;;9.53;5.20;;;20.30;99.90;;;;;;4967215;28;20431;-73
2023/06/16 06:03:49;;;;;;;6.07;5.00;;;20.50;99.90;;;;;;4969220;28;20450;-72
2023/06/16 06:06:16;;;;;;;8.90;5.50;;;20.60;99.90;;;;;;4971356;28;20477;-72
2023/06/16 06:08:42;;;;;;;11.37;4.80;;;20.70;99.90;;;;;;4970233;28;20443;-72
2023/06/16 06:11:09;;;;;;;10.07;4.83;;;20.80;99.90;;;;;;4971407;28;20456;-73
2023/06/16 06:13:36;;;;;;;5.87;5.30;;;20.90;99.90;;;;;;4970762;28;20458;-73
2023/06/16 06:16:02;;;;;;;5.63;5.10;;;21.10;99.90;;;;;;4970176;28;20530;-74
2023/06/16 06:18:30;;;;;;;12.03;5.33;;;21.10;99.90;;;;;;4971209;28;20497;-74
2023/06/16 06:20:57;;;;;;;9.33;5.43;;;21.10;99.90;;;;;;4970962;28;20431;-73
2023/06/16 06:23:24;;;;;;;8.90;5.70;;;21.20;99.90;;;;;;4970309;28;20510;-73
2023/06/16 06:25:50;;;;;;;5.73;5.23;;;21.20;99.90;;;;;;4969758;28;20423;-73
2023/06/16 06:28:17;;;;;;;6.93;5.30;;;21.30;99.90;;;;;;4969889;28;20435;-73
2023/06/16 06:30:44;;;;;;;7.30;4.90;;;21.40;99.90;;;;;;4970704;28;20464;-73
2023/06/16 06:33:10;;;;;;;7.30;4.60;;;21.50;99.90;;;;;;4969396;28;20480;-74
2023/06/16 06:35:38;;;;;;;5.03;4.60;;;21.50;99.90;;;;;;4971173;28;21016;-73
2023/06/16 06:38:05;;;;;;;10.63;5.33;;;21.60;99.90;;;;;;4971165;28;20439;-73
2023/06/16 06:40:32;;;;;;;10.63;5.13;;;21.80;99.90;;;;;;4971236;28;20911;-73
2023/06/16 06:42:59;;;;;;;6.53;4.97;;;22.00;99.90;;;;;;4970932;28;20468;-73
2023/06/16 06:45:26;;;;;;;9.20;5.50;;;22.10;99.90;;;;;;4971110;28;20435;-73
2023/06/16 06:47:52;;;;;;;5.77;5.27;;;22.20;99.90;;;;;;4971018;28;20503;-73
2023/06/16 06:50:19;;;;;;;15.17;5.10;;;22.20;99.90;;;;;;4971280;28;20490;-73
2023/06/16 06:52:47;;;;;;;7.23;4.83;;;22.30;99.90;;;;;;4970956;28;20480;-73
2023/06/16 06:55:13;;;;;;;7.40;5.73;;;22.40;99.90;;;;;;4970760;28;20488;-73
2023/06/16 06:57:42;;;;;;;12.03;5.60;;;22.50;99.90;;;;;;4971070;28;20431;-73
2023/06/16 07:00:10;;;;;;;6.77;5.17;;;22.50;99.90;;;;;;4971080;28;20547;-73
2023/06/16 07:02:36;;;;;;;8.23;5.03;;;22.60;99.90;;;;;;4973261;28;20482;-73
2023/06/16 07:05:03;;;;;;;5.67;5.00;;;22.80;99.90;;;;;;4974824;28;20458;-72
2023/06/16 07:07:30;;;;;;;7.93;6.10;;;22.90;99.90;;;;;;4974832;28;20705;-72
2023/06/16 07:09:58;;;;;;;11.50;5.00;;;23.10;99.90;;;;;;4974640;28;20468;-73
2023/06/16 07:12:24;;;;;;;14.33;6.23;;;23.20;99.90;;;;;;4974701;28;20538;-72
2023/06/16 07:14:51;;;;;;;6.43;5.83;;;23.30;99.90;;;;;;4974735;28;20483;-73
2023/06/16 07:17:18;;;;;;;9.33;5.70;;;23.40;99.90;;;;;;4974561;28;20488;-73
2023/06/16 07:19:45;;;;;;;9.57;5.43;;;23.50;99.90;;;;;;4974611;28;20514;-72
2023/06/16 07:22:12;;;;;;;7.67;5.97;;;23.70;99.90;;;;;;4974016;28;20454;-72
2023/06/16 07:24:39;;;;;;;10.63;5.07;;;23.80;99.90;;;;;;4974324;28;20506;-72
2023/06/16 07:27:07;;;;;;;10.10;5.97;;;24.00;99.90;;;;;;4974529;28;20502;-73
2023/06/16 07:29:34;;;;;;;8.50;4.77;;;24.00;99.90;;;;;;4974676;28;20456;-72
2023/06/16 07:32:01;;;;;;;7.67;5.23;;;24.20;99.90;;;;;;4973968;28;20483;-73
2023/06/16 07:34:28;;;;;;;6.57;5.17;;;24.20;99.90;;;;;;4974469;28;20525;-73
2023/06/16 07:36:54;;;;;;;12.10;5.27;;;24.40;99.90;;;;;;4974160;28;20460;-73
2023/06/16 07:39:21;;;;;;;8.30;4.57;;;24.50;99.90;;;;;;4974487;28;20938;-73
2023/06/16 07:41:48;;;;;;;6.27;5.37;;;24.60;99.90;;;;;;4974248;28;20468;-73
2023/06/16 07:44:16;;;;;;;6.07;4.67;;;24.80;99.90;;;;;;4973983;28;20456;-73
2023/06/16 07:46:45;;;;;;;9.77;5.20;;;24.80;99.90;;;;;;4974035;28;20456;-73
2023/06/16 07:49:13;;;;;;;6.20;5.10;;;24.90;99.90;;;;;;4973434;28;20456;-73
2023/06/16 07:51:40;;;;;;;7.27;4.60;;;24.80;99.90;;;;;;4974073;28;20452;-74
2023/06/16 07:54:06;;;;;;;7.20;4.80;;;24.90;99.90;;;;;;4973574;28;20534;-74
2023/06/16 07:56:33;;;;;;;9.33;4.97;;;25.00;99.90;;;;;;4973692;28;20492;-74
2023/06/16 07:59:00;;;;;;;9.00;4.77;;;25.20;99.90;;;;;;4973774;28;20503;-74
2023/06/16 08:01:28;;;;;;;6.63;5.10;;;25.30;99.90;;;;;;4973414;28;20969;-73
2023/06/16 08:03:56;;;;;;;9.87;5.60;;;25.30;99.90;;;;;;4973588;28;20527;-73
2023/06/16 08:06:22;;;;;;;6.17;4.97;;;25.20;99.90;;;;;;4973786;28;20464;-73
2023/06/16 08:08:49;;;;;;;6.77;4.97;;;25.20;99.90;;;;;;4973874;28;20948;-73
2023/06/16 08:11:16;;;;;;;15.47;5.37;;;25.30;99.90;;;;;;4973451;28;20887;-73
2023/06/16 08:13:43;;;;;;;11.63;5.37;;;25.50;99.90;;;;;;4972892;28;20558;-73
2023/06/16 08:16:09;;;;;;;6.63;4.70;;;25.70;99.90;;;;;;4973172;28;20491;-73
2023/06/16 08:18:37;;;;;;;10.10;5.40;;;26.00;99.90;;;;;;4973691;28;20497;-73
2023/06/16 08:21:06;;;;;;;10.60;5.40;;;26.20;99.90;;;;;;4973378;28;20515;-72
2023/06/16 08:23:33;;;;;;;6.70;5.03;;;26.30;99.90;;;;;;4973356;28;20475;-74
2023/06/16 08:26:00;;;;;;;8.83;5.33;;;26.30;99.90;;;;;;4973514;28;20452;-72
2023/06/16 08:28:27;;;;;;;8.93;5.10;;;26.20;99.90;;;;;;4973076;28;20499;-73
2023/06/16 08:30:54;;;;;;;7.23;5.17;;;26.10;99.90;;;;;;4973091;28;20452;-72
2023/06/16 08:33:20;;;;;;;6.20;4.70;;;26.20;99.90;;;;;;4973134;28;20526;-72
2023/06/16 08:35:48;;;;;;;6.23;4.70;;;26.20;99.90;;;;;;4973099;28;21035;-73
2023/06/16 08:38:15;;;;;;;7.33;5.30;;;26.40;99.90;;;;;;4972906;28;20456;-72
2023/06/16 08:40:43;;;;;;;6.43;4.90;;;26.60;99.90;;;;;;4973157;28;20663;-72
2023/06/16 08:43:13;;;;;;;6.70;5.33;;;26.70;99.90;;;;;;4972585;28;20849;-73
2023/06/16 08:45:40;;;;;;;5.17;4.70;;;26.80;99.90;;;;;;4973030;28;20951;-73
2023/06/16 08:48:07;;;;;;;8.80;5.00;;;26.90;99.90;;;;;;4972465;28;20507;-73
2023/06/16 08:50:34;;;;;;;6.87;5.27;;;27.10;99.90;;;;;;4973106;28;20464;-72
2023/06/16 08:53:06;;;;;;;11.50;5.37;;;27.20;99.70;;;;;;4972630;28;20480;-73
2023/06/16 08:55:33;;;;;;;8.70;4.60;;;27.10;99.90;;;;;;4965081;28;20521;-73
2023/06/16 08:58:01;;;;;;;6.80;5.00;;;27.20;99.60;;;;;;4973021;28;20467;-73
2023/06/16 09:00:30;;;;;;;14.63;5.30;;;27.30;99.90;;;;;;4972742;28;20546;-73
2023/06/16 09:02:59;;;;;;;11.13;4.73;;;27.60;99.90;;;;;;4972849;28;20475;-73
2023/06/16 09:05:26;;;;;;;8.40;4.00;;;27.80;99.70;;;;;;4972628;28;20467;-73
2023/06/16 09:07:52;;;;;;;9.30;5.50;;;27.90;96.80;;;;;;4972478;28;21007;-74
2023/06/16 09:10:20;;;;;;;5.17;4.67;;;27.90;96.40;;;;;;4972399;28;20965;-73
2023/06/16 09:12:52;;;;;;;5.37;4.37;;;27.80;97.60;;;;;;4972370;28;20604;-72
2023/06/16 09:15:19;;;;;;;7.10;4.77;;;27.90;97.40;;;;;;4972150;28;21034;-72
2023/06/16 09:17:48;;;;;;;5.30;4.57;;;27.90;97.40;;;;;;4972442;28;20452;-72
2023/06/16 09:20:15;;;;;;;11.47;4.83;;;28.00;97.20;;;;;;4972016;28;20943;-73
2023/06/16 09:22:42;;;;;;;6.03;4.40;;;27.50;96.10;;;;;;4972013;28;20538;-72
2023/06/16 09:25:12;;;;;;;5.60;4.80;;;27.50;96.70;;;;;;4971390;28;20452;-72
2023/06/16 09:27:44;;;;;;;6.37;4.60;;;27.70;95.10;;;;;;4972469;28;20460;-73
2023/06/16 09:30:13;;;;;;;5.83;4.80;;;27.90;95.20;;;;;;4972236;28;20464;-72
2023/06/16 09:32:40;;;;;;;7.03;4.97;;;28.20;96.20;;;;;;4971854;28;20478;-72
2023/06/16 09:35:18;;;;;;;5.23;4.50;;;28.40;95.00;;;;;;4971774;28;20460;-72
2023/06/16 09:37:45;;;;;;;11.30;4.70;;;28.50;94.20;;;;;;4972285;28;20514;-73
2023/06/16 09:40:13;;;;;;;5.13;4.47;;;28.50;94.50;;;;;;4971976;28;20456;-73
2023/06/16 09:42:40;;;;;;;4.67;4.00;;;28.40;93.50;;;;;;4971856;28;20538;-73
2023/06/16 09:45:12;;;;;;;5.73;4.27;;;28.50;93.60;;;;;;4972078;28;20460;-73
2023/06/16 09:47:40;;;;;;;5.50;4.77;;;28.70;92.40;;;;;;4964794;28;20559;-73
2023/06/16 09:50:12;;;;;;;8.37;5.00;;;28.70;92.40;;;;;;4972090;28;20460;-73
2023/06/16 09:52:38;;;;;;;6.90;4.43;;;28.70;92.60;;;;;;4972134;28;20468;-74
2023/06/16 09:55:07;;;;;;;4.50;4.10;;;28.60;92.50;;;;;;4971938;28;20456;-74
2023/06/16 09:57:33;;;;;;;11.03;4.97;;;28.70;92.80;;;;;;4963861;28;20518;-73
2023/06/16 10:00:00;;;;;;;4.80;4.30;;;28.80;93.20;;;;;;4965445;28;20460;-74
2023/06/16 10:02:29;;;;;;;5.97;4.73;;;29.00;92.80;;;;;;4971451;28;20472;-74
2023/06/16 10:05:00;;;;;;;4.60;4.20;;;29.20;92.40;;;;;;4971650;28;20459;-74
2023/06/16 10:07:27;;;;;;;12.77;4.40;;;29.20;90.30;;;;;;4971814;28;20455;-74
2023/06/16 10:09:54;;;;;;;6.10;3.90;;;29.20;90.70;;;;;;4971425;28;20933;-74
2023/06/16 10:12:23;;;;;;;6.43;4.20;;;29.20;90.40;;;;;;4971584;28;20530;-74
2023/06/16 10:14:50;;;;;;;7.70;4.23;;;29.30;90.70;;;;;;4971710;28;20527;-74
2023/06/16 10:17:18;;;;;;;5.33;4.20;;;29.50;91.20;;;;;;4971412;28;20484;-74
2023/06/16 10:19:51;;;;;;;7.80;4.13;;;29.80;91.00;;;;;;4971809;28;20463;-74
2023/06/16 10:22:18;;;;;;;5.73;4.80;;;29.80;90.90;;;;;;4971237;28;20468;-74
2023/06/16 10:24:45;;;;;;;5.67;4.60;;;30.00;91.50;;;;;;4971429;28;20460;-74
2023/06/16 10:27:13;;;;;;;7.13;4.23;;;30.20;90.30;;;;;;4971550;28;21020;-74
2023/06/16 10:29:41;;;;;;;9.70;4.30;;;30.10;89.60;;;;;;4971650;28;20444;-74
2023/06/16 10:32:07;;;;;;;6.20;4.53;;;29.50;89.70;;;;;;4971806;28;20459;-73
2023/06/16 10:34:36;;;;;;;7.23;4.20;;;29.30;90.60;;;;;;4963421;28;20456;-74
2023/06/16 10:37:04;;;;;;;5.17;4.40;;;29.40;91.20;;;;;;4972779;28;20866;-74
2023/06/16 10:39:42;;;;;;;7.87;5.17;;;29.50;90.80;;;;;;4975318;28;20452;-74
2023/06/16 10:42:12;;;;;;;8.60;3.73;;;29.90;90.50;;;;;;4975219;28;20448;-74
2023/06/16 10:44:39;;;;;;;4.67;4.17;;;29.80;90.20;;;;;;4967658;28;20939;-74
2023/06/16 10:47:36;;;;;;;6.33;4.50;;;29.40;89.50;;;;;;4974831;28;20994;-74
2023/06/16 10:50:04;;;;;;;10.33;4.13;;;29.20;90.50;;;;;;4975407;28;20452;-74
2023/06/16 10:52:49;;;;;;;6.20;4.77;;;29.00;90.60;;;;;;4974870;28;20478;-74
2023/06/16 10:55:20;;;;;;;4.43;3.93;;;28.80;90.30;;;;;;4974693;28;20448;-74
2023/06/16 10:57:57;;;;;;;6.67;4.47;;;28.30;90.30;;;;;;4975432;28;20738;-73
2023/06/16 11:00:27;;;;;;;7.57;4.43;;;27.50;90.00;;;;;;4974852;28;20464;-73
2023/06/16 11:02:59;;;;;;;9.43;4.30;;;27.00;90.70;;;;;;4974811;28;20530;-73
2023/06/16 11:05:37;;;;;;;5.67;4.50;;;26.80;91.80;;;;;;4974714;28;20468;-73
2023/06/16 11:08:16;;;;;;;9.03;5.07;;;26.70;92.60;;;;;;4974850;28;20451;-73
2023/06/16 11:10:50;;;;;;;7.90;5.33;;;26.80;92.90;;;;;;4967868;28;20554;-73
2023/06/16 11:13:18;;;;;;;12.80;5.20;;;26.80;92.20;;;;;;4974369;28;21036;-74
2023/06/16 11:15:45;;;;;;;10.23;4.90;;;26.80;95.70;;;;;;4974602;28;20491;-74
2023/06/16 11:18:12;;;;;;;7.80;4.30;;;26.60;97.80;;;;;;4974449;28;20714;-73
2023/06/16 11:20:40;;;;;;;10.33;4.70;;;26.50;95.00;;;;;;4974763;28;20448;-73
2023/06/16 11:23:07;;;;;;;10.37;4.67;;;26.40;95.00;;;;;;4974656;28;20891;-73
2023/06/16 11:25:36;;;;;;;5.57;4.47;;;26.30;94.50;;;;;;4974589;28;20452;-73
2023/06/16 11:28:04;;;;;;;6.27;5.13;;;26.40;94.40;;;;;;4974618;28;20555;-73
2023/06/16 11:30:31;;;;;;;6.80;4.77;;;26.80;94.80;;;;;;4974254;28;20459;-73
2023/06/16 11:32:58;;;;;;;8.40;4.83;;;27.10;93.50;;;;;;4974469;28;20531;-73
2023/06/16 11:35:30;;;;;;;5.50;4.30;;;27.40;93.50;;;;;;4974386;28;20538;-73
2023/06/16 11:37:57;;;;;;;7.17;4.43;;;27.50;93.00;;;;;;4974630;28;20444;-73
2023/06/16 11:40:26;;;;;;;9.47;4.37;;;27.50;93.10;;;;;;4974235;28;20514;-73
2023/06/16 11:42:55;;;;;;;5.57;4.37;;;27.50;93.10;;;;;;4974485;28;20562;-73
2023/06/16 11:45:22;;;;;;;6.30;4.10;;;27.50;92.70;;;;;;4973745;28;20531;-73
2023/06/16 11:47:49;;;;;;;7.93;4.80;;;27.40;92.50;;;;;;4973357;28;20447;-73
2023/06/16 11:50:17;;;;;;;5.37;4.67;;;27.40;92.30;;;;;;4973592;28;20483;-73
2023/06/16 11:52:44;;;;;;;5.97;4.47;;;27.40;92.70;;;;;;4973920;28;20541;-73
2023/06/16 11:55:11;;;;;;;8.07;5.80;;;27.30;92.50;;;;;;4973880;28;20514;-74
2023/06/16 11:57:38;;;;;;;6.63;5.00;;;27.20;92.80;;;;;;4973713;28;20531;-73
2023/06/16 12:00:09;;;;;;;6.97;4.60;;;27.10;92.60;;;;;;4973960;28;20498;-74
2023/06/16 12:02:37;;;;;;;7.00;5.13;;;26.90;93.20;;;;;;4973696;28;20472;-74
2023/06/16 12:05:06;;;;;;;8.03;5.30;;;26.80;93.00;;;;;;4973702;28;20464;-74
2023/06/16 12:07:33;;;;;;;11.30;4.43;;;26.60;92.70;;;;;;4973816;28;20506;-73
2023/06/16 12:10:02;;;;;;;6.50;4.73;;;26.50;93.40;;;;;;4973476;28;20941;-74
2023/06/16 12:12:29;;;;;;;7.70;4.70;;;26.40;93.50;;;;;;4973512;28;20476;-73
2023/06/16 12:14:58;;;;;;;4.67;4.27;;;26.40;93.90;;;;;;4973704;28;20471;-73
2023/06/16 12:17:26;;;;;;;6.50;4.50;;;26.20;92.70;;;;;;4973374;28;20502;-73
2023/06/16 12:19:54;;;;;;;6.70;4.60;;;26.10;93.10;;;;;;4973448;28;20511;-74
2023/06/16 12:22:22;;;;;;;6.00;4.67;;;25.90;92.40;;;;;;4973014;28;20476;-73
2023/06/16 12:24:49;;;;;;;10.53;3.97;;;25.60;92.40;;;;;;4973446;28;20511;-73
2023/06/16 12:27:23;;;;;;;5.10;4.20;;;25.50;93.60;;;;;;4973465;28;20448;-73
2023/06/16 12:29:56;;;;;;;5.30;4.07;;;25.30;92.40;;;;;;4973332;28;20554;-73
2023/06/16 12:32:29;;;;;;;4.50;4.13;;;25.20;92.20;;;;;;4973143;28;20728;-74
2023/06/16 12:34:56;;;;;;;6.97;4.50;;;25.20;92.70;;;;;;4973108;28;20460;-73
2023/06/16 12:37:26;;;;;;;8.83;4.67;;;25.40;92.30;;;;;;4973250;28;20488;-74
2023/06/16 12:40:06;;;;;;;4.07;3.70;;;25.60;92.40;;;;;;4973281;28;20456;-74
2023/06/16 12:42:34;;;;;;;4.10;3.80;;;26.00;91.90;;;;;;4972795;28;20563;-73
2023/06/16 12:45:02;;;;;;;9.57;4.30;;;26.50;92.40;;;;;;4973076;28;20452;-74
2023/06/16 12:47:32;;;;;;;6.50;4.83;;;26.80;91.60;;;;;;4972713;28;20515;-74
2023/06/16 12:50:00;;;;;;;4.70;4.17;;;27.20;91.20;;;;;;4973080;28;20448;-74